sensor_id;sensor_type;location;lat;lon;timestamp;pressure;altitude;pressure_sealevel;temperature;humidity
14089;BME280;7120;52.890;6.040;2023-04-07T00:00:49;101362.91;;;8.20;100.00
14089;BME280;7120;52.890;6.040;2023-04-07T00:03:14;101362.66;;;8.37;100.00
14089;BME280;7120;52.890;6.040;2023-04-07T00:05:40;101361.84;;;8.41;100.00
14089;BME280;7120;52.890;6.040;2023-04-07T00:08:05;101362.38;;;8.38;100.00
14089;BME280;7120;52.890;6.040;2023-04-07T00:10:30;101371.09;;;8.40;100.00
14089;BME280;7120;52.890;6.040;2023-04-07T00:12:56;101368.38;;;8.35;100.00
14089;BME280;7120;52.890;6.040;2023-04-07T00:15:21;101360.16;;;8.50;100.00
14089;BME280;7120;52.890;6.040;2023-04-07T00:17:46;101357.72;;;8.49;100.00
14089;BME280;7120;52.890;6.040;2023-04-07T00:20:12;101354.72;;;8.50;100.00
14089;BME280;7120;52.890;6.040;2023-04-07T00:22:37;101366.19;;;8.42;100.00
14089;BME280;7120;52.890;6.040;2023-04-07T00:25:03;101352.00;;;8.30;100.00
14089;BME280;7120;52.890;6.040;2023-04-07T00:27:28;101361.56;;;8.43;100.00
14089;BME280;7120;52.890;6.040;2023-04-07T00:29:54;101357.47;;;8.35;100.00
14089;BME280;7120;52.890;6.040;2023-04-07T00:32:20;101359.88;;;8.52;100.00
14089;BME280;7120;52.890;6.040;2023-04-07T00:34:46;101359.88;;;8.52;100.00
14089;BME280;7120;52.890;6.040;2023-04-07T00:37:11;101356.63;;;8.50;100.00
14089;BME280;7120;52.890;6.040;2023-04-07T00:39:36;101360.47;;;8.54;100.00
14089;BME280;7120;52.890;6.040;2023-04-07T00:42:03;101357.16;;;8.62;100.00
14089;BME280;7120;52.890;6.040;2023-04-07T00:44:29;101355.50;;;8.66;100.00
14089;BME280;7120;52.890;6.040;2023-04-07T00:46:55;101359.03;;;8.72;100.00
14089;BME280;7120;52.890;6.040;2023-04-07T00:49:20;101353.06;;;8.70;100.00
14089;BME280;7120;52.890;6.040;2023-04-07T00:51:46;101356.38;;;8.46;100.00
14089;BME280;7120;52.890;6.040;2023-04-07T00:54:11;101361.28;;;8.55;100.00
14089;BME280;7120;52.890;6.040;2023-04-07T00:56:37;101356.34;;;8.62;100.00
14089;BME280;7120;52.890;6.040;2023-04-07T00:59:03;101356.34;;;8.57;100.00
14089;BME280;7120;52.890;6.040;2023-04-07T01:01:40;101369.41;;;8.65;100.00
14089;BME280;7120;52.890;6.040;2023-04-07T01:04:18;101361.81;;;8.62;100.00
14089;BME280;7120;52.890;6.040;2023-04-07T01:06:49;101364.25;;;8.68;100.00
14089;BME280;7120;52.890;6.040;2023-04-07T01:09:22;101357.44;;;8.50;100.00
14089;BME280;7120;52.890;6.040;2023-04-07T01:12:09;101359.06;;;8.62;100.00
14089;BME280;7120;52.890;6.040;2023-04-07T01:14:41;101359.59;;;8.59;100.00
14089;BME280;7120;52.890;6.040;2023-04-07T01:17:11;101352.25;;;8.59;100.00
14089;BME280;7120;52.890;6.040;2023-04-07T01:19:52;101348.97;;;8.52;100.00
14089;BME280;7120;52.890;6.040;2023-04-07T01:22:25;101354.72;;;8.61;100.00
14089;BME280;7120;52.890;6.040;2023-04-07T01:30:34;101365.34;;;8.57;100.00
14089;BME280;7120;52.890;6.040;2023-04-07T01:33:03;101355.53;;;8.51;100.00
14089;BME280;7120;52.890;6.040;2023-04-07T01:35:32;101347.91;;;8.48;100.00
14089;BME280;7120;52.890;6.040;2023-04-07T01:37:59;101352.00;;;8.61;100.00
14089;BME280;7120;52.890;6.040;2023-04-07T01:40:25;101356.88;;;8.64;100.00
14089;BME280;7120;52.890;6.040;2023-04-07T01:42:52;101363.09;;;8.79;100.00
14089;BME280;7120;52.890;6.040;2023-04-07T01:45:19;101359.59;;;8.69;100.00
14089;BME280;7120;52.890;6.040;2023-04-07T01:47:45;101357.94;;;8.83;100.00
14089;BME280;7120;52.890;6.040;2023-04-07T01:50:11;101356.25;;;8.87;100.00
14089;BME280;7120;52.890;6.040;2023-04-07T01:52:37;101357.63;;;8.85;100.00
14089;BME280;7120;52.890;6.040;2023-04-07T01:55:05;101344.31;;;8.73;100.00
14089;BME280;7120;52.890;6.040;2023-04-07T01:57:31;101358.22;;;8.82;100.00
14089;BME280;7120;52.890;6.040;2023-04-07T01:59:56;101359.56;;;8.79;100.00
14089;BME280;7120;52.890;6.040;2023-04-07T02:02:22;101350.78;;;8.92;100.00
14089;BME280;7120;52.890;6.040;2023-04-07T02:08:03;101355.66;;;9.00;100.00
14089;BME280;7120;52.890;6.040;2023-04-07T02:10:32;101354.34;;;8.93;100.00
14089;BME280;7120;52.890;6.040;2023-04-07T02:12:59;101364.41;;;8.97;100.00
14089;BME280;7120;52.890;6.040;2023-04-07T02:15:26;101362.75;;;9.01;100.00
14089;BME280;7120;52.890;6.040;2023-04-07T02:17:53;101367.91;;;9.08;100.00
14089;BME280;7120;52.890;6.040;2023-04-07T02:20:21;101362.47;;;9.08;100.00
14089;BME280;7120;52.890;6.040;2023-04-07T02:22:47;101355.72;;;8.95;100.00
14089;BME280;7120;52.890;6.040;2023-04-07T02:27:48;101370.63;;;9.13;100.00
14089;BME280;7120;52.890;6.040;2023-04-07T02:30:14;101363.31;;;8.98;100.00
14089;BME280;7120;52.890;6.040;2023-04-07T02:32:39;101366.78;;;9.19;100.00
14089;BME280;7120;52.890;6.040;2023-04-07T02:35:06;101366.19;;;9.27;100.00
14089;BME280;7120;52.890;6.040;2023-04-07T02:37:31;101367.00;;;9.28;100.00
14089;BME280;7120;52.890;6.040;2023-04-07T02:39:56;101370.53;;;9.33;100.00
14089;BME280;7120;52.890;6.040;2023-04-07T02:42:22;101371.56;;;9.43;100.00
14089;BME280;7120;52.890;6.040;2023-04-07T02:44:47;101365.38;;;9.27;100.00
14089;BME280;7120;52.890;6.040;2023-04-07T02:47:13;101366.41;;;9.36;100.00
14089;BME280;7120;52.890;6.040;2023-04-07T02:49:38;101368.91;;;9.38;100.00
14089;BME280;7120;52.890;6.040;2023-04-07T02:52:03;101376.19;;;9.52;100.00
14089;BME280;7120;52.890;6.040;2023-04-07T02:54:29;101370.66;;;9.57;100.00
14089;BME280;7120;52.890;6.040;2023-04-07T02:56:54;101372.06;;;9.55;100.00
14089;BME280;7120;52.890;6.040;2023-04-07T02:59:20;101375.19;;;9.28;100.00
14089;BME280;7120;52.890;6.040;2023-04-07T03:01:46;101369.50;;;9.24;100.00
14089;BME280;7120;52.890;6.040;2023-04-07T03:04:12;101367.91;;;9.08;100.00
14089;BME280;7120;52.890;6.040;2023-04-07T03:06:37;101373.94;;;9.00;100.00
14089;BME280;7120;52.890;6.040;2023-04-07T03:09:02;101375.84;;;9.10;100.00
14089;BME280;7120;52.890;6.040;2023-04-07T03:11:28;101376.88;;;9.24;100.00
14089;BME280;7120;52.890;6.040;2023-04-07T03:13:53;101384.84;;;9.05;100.00
14089;BME280;7120;52.890;6.040;2023-04-07T03:16:19;101385.44;;;8.92;100.00
14089;BME280;7120;52.890;6.040;2023-04-07T03:18:45;101388.09;;;9.12;100.00
14089;BME280;7120;52.890;6.040;2023-04-07T03:21:10;101381.16;;;9.35;100.00
14089;BME280;7120;52.890;6.040;2023-04-07T03:23:35;101380.66;;;9.28;100.00
14089;BME280;7120;52.890;6.040;2023-04-07T03:26:01;101382.94;;;9.05;100.00
14089;BME280;7120;52.890;6.040;2023-04-07T03:28:26;101388.31;;;9.26;100.00
14089;BME280;7120;52.890;6.040;2023-04-07T03:30:52;101376.94;;;9.58;100.00
14089;BME280;7120;52.890;6.040;2023-04-07T03:33:17;101372.41;;;9.43;100.00
14089;BME280;7120;52.890;6.040;2023-04-07T03:35:43;101375.22;;;9.23;100.00
14089;BME280;7120;52.890;6.040;2023-04-07T03:38:08;101382.50;;;9.43;100.00
14089;BME280;7120;52.890;6.040;2023-04-07T03:40:33;101372.38;;;9.48;100.00
14089;BME280;7120;52.890;6.040;2023-04-07T03:42:59;101372.22;;;9.24;100.00
14089;BME280;7120;52.890;6.040;2023-04-07T03:45:25;101378.13;;;9.47;100.00
14089;BME280;7120;52.890;6.040;2023-04-07T03:47:50;101386.00;;;9.58;100.00
14089;BME280;7120;52.890;6.040;2023-04-07T03:50:16;101379.47;;;9.49;100.00
14089;BME280;7120;52.890;6.040;2023-04-07T03:52:42;101371.13;;;9.30;100.00
14089;BME280;7120;52.890;6.040;2023-04-07T03:55:07;101370.66;;;9.57;100.00
14089;BME280;7120;52.890;6.040;2023-04-07T03:57:33;101383.88;;;9.40;100.00
14089;BME280;7120;52.890;6.040;2023-04-07T03:59:58;101377.53;;;9.55;100.00
14089;BME280;7120;52.890;6.040;2023-04-07T04:02:23;101382.16;;;9.59;100.00
14089;BME280;7120;52.890;6.040;2023-04-07T04:04:49;101380.66;;;9.28;100.00
14089;BME280;7120;52.890;6.040;2023-04-07T04:07:15;101381.69;;;9.42;100.00
14089;BME280;7120;52.890;6.040;2023-04-07T04:09:40;101395.91;;;9.39;100.00
14089;BME280;7120;52.890;6.040;2023-04-07T04:12:06;101386.44;;;9.71;100.00
14089;BME280;7120;52.890;6.040;2023-04-07T04:14:31;101396.84;;;9.69;100.00
14089;BME280;7120;52.890;6.040;2023-04-07T04:16:56;101381.25;;;9.74;100.00
14089;BME280;7120;52.890;6.040;2023-04-07T04:19:22;101385.84;;;9.79;100.00
14089;BME280;7120;52.890;6.040;2023-04-07T04:21:47;101388.81;;;9.82;100.00
14089;BME280;7120;52.890;6.040;2023-04-07T04:24:12;101379.81;;;9.82;100.00
14089;BME280;7120;52.890;6.040;2023-04-07T04:26:38;101391.75;;;9.96;100.00
14089;BME280;7120;52.890;6.040;2023-04-07T04:29:03;101396.69;;;9.94;100.00
14089;BME280;7120;52.890;6.040;2023-04-07T04:31:28;101390.34;;;9.99;100.00
14089;BME280;7120;52.890;6.040;2023-04-07T04:33:54;101395.72;;;9.70;100.00
14089;BME280;7120;52.890;6.040;2023-04-07T04:36:19;101403.31;;;9.83;100.00
14089;BME280;7120;52.890;6.040;2023-04-07T04:38:45;101396.50;;;9.80;100.00
14089;BME280;7120;52.890;6.040;2023-04-07T04:41:10;101405.53;;;9.76;100.00
14089;BME280;7120;52.890;6.040;2023-04-07T04:43:36;101405.19;;;9.87;100.00
14089;BME280;7120;52.890;6.040;2023-04-07T04:46:01;101412.78;;;9.96;100.00
14089;BME280;7120;52.890;6.040;2023-04-07T04:48:26;101415.34;;;9.82;100.00
14089;BME280;7120;52.890;6.040;2023-04-07T04:50:52;101420.78;;;9.87;100.00
14089;BME280;7120;52.890;6.040;2023-04-07T04:53:17;101422.84;;;9.56;100.00
14089;BME280;7120;52.890;6.040;2023-04-07T04:55:43;101418.19;;;9.61;100.00
14089;BME280;7120;52.890;6.040;2023-04-07T04:58:11;101418.88;;;9.82;100.00
14089;BME280;7120;52.890;6.040;2023-04-07T05:00:36;101422.94;;;9.90;100.00
14089;BME280;7120;52.890;6.040;2023-04-07T05:03:02;101421.53;;;9.93;100.00
14089;BME280;7120;52.890;6.040;2023-04-07T05:05:28;101428.72;;;9.78;100.00
14089;BME280;7120;52.890;6.040;2023-04-07T05:07:53;101421.91;;;9.81;100.00
14089;BME280;7120;52.890;6.040;2023-04-07T05:10:19;101429.13;;;9.56;100.00
14089;BME280;7120;52.890;6.040;2023-04-07T05:12:44;101425.28;;;9.57;100.00
14089;BME280;7120;52.890;6.040;2023-04-07T05:15:10;101425.56;;;9.56;100.00
14089;BME280;7120;52.890;6.040;2023-04-07T05:17:35;101438.31;;;9.71;100.00
14089;BME280;7120;52.890;6.040;2023-04-07T05:20:01;101429.50;;;9.84;100.00
14089;BME280;7120;52.890;6.040;2023-04-07T05:22:27;101447.31;;;9.76;100.00
14089;BME280;7120;52.890;6.040;2023-04-07T05:24:53;101446.47;;;9.81;100.00
14089;BME280;7120;52.890;6.040;2023-04-07T05:27:18;101449.16;;;9.91;100.00
14089;BME280;7120;52.890;6.040;2023-04-07T05:29:44;101448.09;;;9.87;100.00
14089;BME280;7120;52.890;6.040;2023-04-07T05:32:09;101445.59;;;9.90;100.00
14089;BME280;7120;52.890;6.040;2023-04-07T05:34:35;101453.34;;;9.73;100.00
14089;BME280;7120;52.890;6.040;2023-04-07T05:37:00;101446.78;;;9.74;100.00
14089;BME280;7120;52.890;6.040;2023-04-07T05:39:26;101442.47;;;9.63;100.00
14089;BME280;7120;52.890;6.040;2023-04-07T05:41:51;101455.53;;;9.71;100.00
14089;BME280;7120;52.890;6.040;2023-04-07T05:44:16;101462.69;;;9.57;100.00
14089;BME280;7120;52.890;6.040;2023-04-07T05:46:42;101463.41;;;9.83;100.00
14089;BME280;7120;52.890;6.040;2023-04-07T05:49:07;101458.22;;;9.81;100.00
14089;BME280;7120;52.890;6.040;2023-04-07T05:51:32;101461.84;;;9.67;100.00
14089;BME280;7120;52.890;6.040;2023-04-07T05:54:01;101462.91;;;9.71;100.00
14089;BME280;7120;52.890;6.040;2023-04-07T05:56:27;101460.75;;;9.68;100.00
14089;BME280;7120;52.890;6.040;2023-04-07T05:58:53;101465.06;;;9.79;100.00
14089;BME280;7120;52.890;6.040;2023-04-07T06:01:18;101469.16;;;9.76;100.00
14089;BME280;7120;52.890;6.040;2023-04-07T06:03:43;101475.16;;;9.78;100.00
14089;BME280;7120;52.890;6.040;2023-04-07T06:06:09;101475.25;;;9.58;100.00
14089;BME280;7120;52.890;6.040;2023-04-07T06:08:34;101482.66;;;9.52;100.00
14089;BME280;7120;52.890;6.040;2023-04-07T06:11:00;101483.78;;;9.46;100.00
14089;BME280;7120;52.890;6.040;2023-04-07T06:13:26;101472.09;;;9.30;100.00
14089;BME280;7120;52.890;6.040;2023-04-07T06:15:54;101485.44;;;9.37;100.00
14089;BME280;7120;52.890;6.040;2023-04-07T06:18:20;101489.81;;;9.38;100.00
14089;BME280;7120;52.890;6.040;2023-04-07T06:20:45;101483.56;;;9.27;100.00
14089;BME280;7120;52.890;6.040;2023-04-07T06:23:11;101493.69;;;9.17;100.00
14089;BME280;7120;52.890;6.040;2023-04-07T06:25:36;101490.94;;;9.22;100.00
14089;BME280;7120;52.890;6.040;2023-04-07T06:28:01;101495.28;;;9.28;100.00
14089;BME280;7120;52.890;6.040;2023-04-07T06:30:27;101498.34;;;9.11;100.00
14089;BME280;7120;52.890;6.040;2023-04-07T06:32:52;101507.88;;;9.19;100.00
14089;BME280;7120;52.890;6.040;2023-04-07T06:35:17;101506.25;;;9.13;100.00
14089;BME280;7120;52.890;6.040;2023-04-07T06:37:43;101510.03;;;9.22;100.00
14089;BME280;7120;52.890;6.040;2023-04-07T06:40:08;101516.59;;;9.21;100.00
14089;BME280;7120;52.890;6.040;2023-04-07T06:42:34;101518.50;;;9.30;100.00
14089;BME280;7120;52.890;6.040;2023-04-07T06:44:59;101513.75;;;9.56;100.00
14089;BME280;7120;52.890;6.040;2023-04-07T06:47:25;101500.13;;;9.56;100.00
14089;BME280;7120;52.890;6.040;2023-04-07T06:49:50;101516.50;;;9.51;100.00
14089;BME280;7120;52.890;6.040;2023-04-07T06:52:16;101514.88;;;9.50;100.00
14089;BME280;7120;52.890;6.040;2023-04-07T06:54:41;101519.78;;;9.58;100.00
14089;BME280;7120;52.890;6.040;2023-04-07T06:57:07;101516.22;;;9.58;100.00
14089;BME280;7120;52.890;6.040;2023-04-07T06:59:36;101524.97;;;9.55;100.00
14089;BME280;7120;52.890;6.040;2023-04-07T07:02:02;101524.19;;;9.44;100.00
14089;BME280;7120;52.890;6.040;2023-04-07T07:04:28;101526.31;;;9.57;100.00
14089;BME280;7120;52.890;6.040;2023-04-07T07:06:53;101530.47;;;9.40;100.00
14089;BME280;7120;52.890;6.040;2023-04-07T07:09:20;101526.94;;;9.34;100.00
14089;BME280;7120;52.890;6.040;2023-04-07T07:11:45;101537.34;;;9.22;100.00
14089;BME280;7120;52.890;6.040;2023-04-07T07:14:12;101534.03;;;9.35;100.00
14089;BME280;7120;52.890;6.040;2023-04-07T07:16:37;101540.88;;;9.32;100.00
14089;BME280;7120;52.890;6.040;2023-04-07T07:19:02;101540.00;;;9.52;100.00
14089;BME280;7120;52.890;6.040;2023-04-07T07:21:28;101538.09;;;9.43;100.00
14089;BME280;7120;52.890;6.040;2023-04-07T07:23:53;101542.75;;;9.52;100.00
14089;BME280;7120;52.890;6.040;2023-04-07T07:26:19;101546.91;;;9.24;100.00
14089;BME280;7120;52.890;6.040;2023-04-07T07:28:45;101550.72;;;9.23;100.00
14089;BME280;7120;52.890;6.040;2023-04-07T07:31:11;101548.25;;;9.27;100.00
14089;BME280;7120;52.890;6.040;2023-04-07T07:33:41;101551.75;;;9.53;100.00
14089;BME280;7120;52.890;6.040;2023-04-07T07:36:08;101556.91;;;9.59;100.00
14089;BME280;7120;52.890;6.040;2023-04-07T07:38:33;101561.56;;;9.59;100.00
14089;BME280;7120;52.890;6.040;2023-04-07T07:40:59;101559.06;;;9.68;100.00
14089;BME280;7120;52.890;6.040;2023-04-07T07:43:24;101565.88;;;9.70;100.00
14089;BME280;7120;52.890;6.040;2023-04-07T07:45:50;101565.56;;;9.82;100.00
14089;BME280;7120;52.890;6.040;2023-04-07T07:48:15;101566.84;;;10.00;100.00
14089;BME280;7120;52.890;6.040;2023-04-07T07:50:41;101574.59;;;9.72;100.00
14089;BME280;7120;52.890;6.040;2023-04-07T07:53:08;101576.91;;;9.40;100.00
14089;BME280;7120;52.890;6.040;2023-04-07T07:55:33;101583.13;;;9.50;100.00
14089;BME280;7120;52.890;6.040;2023-04-07T07:57:59;101585.88;;;9.60;100.00
14089;BME280;7120;52.890;6.040;2023-04-07T08:00:25;101586.38;;;9.68;100.00
14089;BME280;7120;52.890;6.040;2023-04-07T08:02:50;101595.09;;;9.75;100.00
14089;BME280;7120;52.890;6.040;2023-04-07T08:05:15;101599.41;;;9.91;100.00
14089;BME280;7120;52.890;6.040;2023-04-07T08:07:41;101596.16;;;9.79;100.00
14089;BME280;7120;52.890;6.040;2023-04-07T08:10:07;101602.84;;;10.22;100.00
14089;BME280;7120;52.890;6.040;2023-04-07T08:12:33;101604.28;;;10.04;100.00
14089;BME280;7120;52.890;6.040;2023-04-07T08:14:58;101602.81;;;10.37;100.00
14089;BME280;7120;52.890;6.040;2023-04-07T08:17:23;101604.94;;;10.45;100.00
14089;BME280;7120;52.890;6.040;2023-04-07T08:19:49;101611.47;;;10.50;100.00
14089;BME280;7120;52.890;6.040;2023-04-07T08:22:14;101624.06;;;10.45;100.00
14089;BME280;7120;52.890;6.040;2023-04-07T08:24:40;101623.69;;;10.62;100.00
14089;BME280;7120;52.890;6.040;2023-04-07T08:27:05;101616.50;;;10.32;100.00
14089;BME280;7120;52.890;6.040;2023-04-07T08:29:31;101628.44;;;10.52;100.00
14089;BME280;7120;52.890;6.040;2023-04-07T08:31:56;101630.78;;;10.68;100.00
14089;BME280;7120;52.890;6.040;2023-04-07T08:34:21;101634.53;;;10.78;100.00
14089;BME280;7120;52.890;6.040;2023-04-07T08:36:47;101632.38;;;10.75;100.00
14089;BME280;7120;52.890;6.040;2023-04-07T08:39:12;101626.66;;;10.71;100.00
14089;BME280;7120;52.890;6.040;2023-04-07T08:41:39;101640.09;;;10.67;100.00
14089;BME280;7120;52.890;6.040;2023-04-07T08:44:09;101644.63;;;10.43;100.00
14089;BME280;7120;52.890;6.040;2023-04-07T08:46:37;101647.66;;;10.21;100.00
14089;BME280;7120;52.890;6.040;2023-04-07T08:49:07;101647.06;;;10.44;100.00
14089;BME280;7120;52.890;6.040;2023-04-07T08:51:34;101650.41;;;10.31;100.00
14089;BME280;7120;52.890;6.040;2023-04-07T08:54:08;101641.94;;;10.17;100.00
14089;BME280;7120;52.890;6.040;2023-04-07T08:56:37;101658.88;;;10.14;100.00
14089;BME280;7120;52.890;6.040;2023-04-07T08:59:04;101651.59;;;9.89;100.00
14089;BME280;7120;52.890;6.040;2023-04-07T09:01:31;101659.28;;;9.82;100.00
14089;BME280;7120;52.890;6.040;2023-04-07T09:03:56;101662.00;;;9.82;100.00
14089;BME280;7120;52.890;6.040;2023-04-07T09:06:23;101675.09;;;9.85;100.00
14089;BME280;7120;52.890;6.040;2023-04-07T09:08:48;101668.25;;;9.93;100.00
14089;BME280;7120;52.890;6.040;2023-04-07T09:11:14;101671.25;;;9.97;100.00
14089;BME280;7120;52.890;6.040;2023-04-07T09:13:40;101671.25;;;10.02;100.00
14089;BME280;7120;52.890;6.040;2023-04-07T09:16:05;101670.38;;;10.27;100.00
14089;BME280;7120;52.890;6.040;2023-04-07T09:18:31;101670.44;;;10.01;100.00
14089;BME280;7120;52.890;6.040;2023-04-07T09:23:35;101674.69;;;10.43;100.00
14089;BME280;7120;52.890;6.040;2023-04-07T09:26:17;101671.22;;;10.77;100.00
14089;BME280;7120;52.890;6.040;2023-04-07T09:28:45;101682.13;;;10.87;100.00
14089;BME280;7120;52.890;6.040;2023-04-07T09:31:11;101680.91;;;11.03;100.00
14089;BME280;7120;52.890;6.040;2023-04-07T09:33:37;101678.31;;;10.78;100.00
14089;BME280;7120;52.890;6.040;2023-04-07T09:36:03;101683.53;;;10.79;100.00
14089;BME280;7120;52.890;6.040;2023-04-07T09:38:38;101674.34;;;10.50;100.00
14089;BME280;7120;52.890;6.040;2023-04-07T09:41:26;101679.59;;;10.41;100.00
14089;BME280;7120;52.890;6.040;2023-04-07T09:43:55;101684.59;;;10.78;100.00
14089;BME280;7120;52.890;6.040;2023-04-07T09:46:21;101677.97;;;10.94;100.00
14089;BME280;7120;52.890;6.040;2023-04-07T09:48:46;101681.75;;;10.98;100.00
14089;BME280;7120;52.890;6.040;2023-04-07T09:51:14;101685.38;;;10.89;100.00
14089;BME280;7120;52.890;6.040;2023-04-07T09:56:10;101692.00;;;11.56;100.00
14089;BME280;7120;52.890;6.040;2023-04-07T09:58:37;101695.06;;;11.49;100.00
14089;BME280;7120;52.890;6.040;2023-04-07T10:01:07;101686.53;;;11.56;100.00
14089;BME280;7120;52.890;6.040;2023-04-07T10:03:36;101688.34;;;11.66;100.00
14089;BME280;7120;52.890;6.040;2023-04-07T10:06:03;101687.16;;;11.77;100.00
14089;BME280;7120;52.890;6.040;2023-04-07T10:08:31;101693.63;;;12.15;100.00
14089;BME280;7120;52.890;6.040;2023-04-07T10:10:58;101688.47;;;11.85;100.00
14089;BME280;7120;52.890;6.040;2023-04-07T10:13:25;101700.78;;;12.11;100.00
14089;BME280;7120;52.890;6.040;2023-04-07T10:15:51;101692.69;;;12.01;100.00
14089;BME280;7120;52.890;6.040;2023-04-07T10:18:19;101704.63;;;11.86;100.00
14089;BME280;7120;52.890;6.040;2023-04-07T10:20:48;101705.31;;;11.97;100.00
14089;BME280;7120;52.890;6.040;2023-04-07T10:23:40;101698.09;;;12.30;100.00
14089;BME280;7120;52.890;6.040;2023-04-07T10:26:07;101697.75;;;12.13;100.00
14089;BME280;7120;52.890;6.040;2023-04-07T10:28:37;101709.00;;;12.11;100.00
14089;BME280;7120;52.890;6.040;2023-04-07T10:31:05;101709.53;;;12.13;100.00
14089;BME280;7120;52.890;6.040;2023-04-07T10:33:52;101714.44;;;11.92;100.00
14089;BME280;7120;52.890;6.040;2023-04-07T10:36:18;101711.47;;;11.83;100.00
14089;BME280;7120;52.890;6.040;2023-04-07T10:41:35;101718.00;;;11.59;100.00
14089;BME280;7120;52.890;6.040;2023-04-07T10:44:02;101718.91;;;11.49;100.00
14089;BME280;7120;52.890;6.040;2023-04-07T10:49:09;101727.81;;;11.25;100.00
14089;BME280;7120;52.890;6.040;2023-04-07T10:51:34;101732.78;;;11.58;100.00
14089;BME280;7120;52.890;6.040;2023-04-07T10:54:19;101739.53;;;11.70;100.00
14089;BME280;7120;52.890;6.040;2023-04-07T10:59:29;101741.63;;;11.83;100.00
14089;BME280;7120;52.890;6.040;2023-04-07T11:04:49;101737.00;;;11.45;100.00
14089;BME280;7120;52.890;6.040;2023-04-07T11:07:15;101742.06;;;11.96;100.00
14089;BME280;7120;52.890;6.040;2023-04-07T11:09:41;101743.31;;;12.08;97.70
14089;BME280;7120;52.890;6.040;2023-04-07T11:12:06;101743.31;;;12.32;99.11
14089;BME280;7120;52.890;6.040;2023-04-07T11:14:32;101749.00;;;12.41;98.71
14089;BME280;7120;52.890;6.040;2023-04-07T11:16:59;101748.97;;;12.65;95.78
14089;BME280;7120;52.890;6.040;2023-04-07T11:19:26;101741.84;;;12.40;96.97
14089;BME280;7120;52.890;6.040;2023-04-07T11:22:17;101740.69;;;12.70;96.62
14089;BME280;7120;52.890;6.040;2023-04-07T11:24:45;101744.63;;;13.02;93.80
14089;BME280;7120;52.890;6.040;2023-04-07T11:27:14;101750.09;;;13.26;98.81
14089;BME280;7120;52.890;6.040;2023-04-07T11:29:39;101747.47;;;13.15;92.53
14089;BME280;7120;52.890;6.040;2023-04-07T11:32:05;101754.00;;;13.57;86.39
14089;BME280;7120;52.890;6.040;2023-04-07T11:34:35;101757.13;;;13.51;89.71
14089;BME280;7120;52.890;6.040;2023-04-07T11:37:23;101768.25;;;13.03;85.96
14089;BME280;7120;52.890;6.040;2023-04-07T11:39:53;101762.63;;;13.32;90.12
14089;BME280;7120;52.890;6.040;2023-04-07T11:42:51;101772.03;;;13.07;87.00
14089;BME280;7120;52.890;6.040;2023-04-07T11:45:17;101780.03;;;12.84;89.13
14089;BME280;7120;52.890;6.040;2023-04-07T11:47:44;101772.75;;;12.93;86.90
14089;BME280;7120;52.890;6.040;2023-04-07T11:50:10;101773.81;;;13.16;93.12
14089;BME280;7120;52.890;6.040;2023-04-07T11:52:46;101783.44;;;12.95;89.54
14089;BME280;7120;52.890;6.040;2023-04-07T11:55:22;101784.44;;;13.04;89.37
14089;BME280;7120;52.890;6.040;2023-04-07T11:57:49;101785.16;;;12.67;89.86
14089;BME280;7120;52.890;6.040;2023-04-07T12:00:18;101792.13;;;13.02;92.74
14089;BME280;7120;52.890;6.040;2023-04-07T12:02:44;101789.94;;;13.04;87.24
14089;BME280;7120;52.890;6.040;2023-04-07T12:05:10;101789.94;;;12.61;87.19
14089;BME280;7120;52.890;6.040;2023-04-07T12:07:37;101791.81;;;12.85;84.64
14089;BME280;7120;52.890;6.040;2023-04-07T12:10:19;101794.63;;;13.04;90.74
14089;BME280;7120;52.890;6.040;2023-04-07T12:12:45;101797.25;;;13.33;84.10
14089;BME280;7120;52.890;6.040;2023-04-07T12:15:11;101793.03;;;12.98;86.67
14089;BME280;7120;52.890;6.040;2023-04-07T12:17:36;101799.34;;;13.17;88.51
14089;BME280;7120;52.890;6.040;2023-04-07T12:20:01;101802.41;;;13.15;88.75
14089;BME280;7120;52.890;6.040;2023-04-07T12:22:27;101797.03;;;13.48;88.04
14089;BME280;7120;52.890;6.040;2023-04-07T12:24:52;101800.06;;;13.28;87.97
14089;BME280;7120;52.890;6.040;2023-04-07T12:27:17;101806.13;;;12.82;86.84
14089;BME280;7120;52.890;6.040;2023-04-07T12:29:43;101801.31;;;12.50;86.89
14089;BME280;7120;52.890;6.040;2023-04-07T12:32:08;101806.41;;;13.04;92.45
14089;BME280;7120;52.890;6.040;2023-04-07T12:34:34;101808.91;;;13.01;86.11
14089;BME280;7120;52.890;6.040;2023-04-07T12:37:02;101802.22;;;13.50;83.91
14089;BME280;7120;52.890;6.040;2023-04-07T12:39:27;101810.00;;;13.24;87.13
14089;BME280;7120;52.890;6.040;2023-04-07T12:41:52;101805.78;;;13.69;83.24
14089;BME280;7120;52.890;6.040;2023-04-07T12:44:18;101807.47;;;13.65;80.02
14089;BME280;7120;52.890;6.040;2023-04-07T12:46:43;101816.94;;;13.40;78.53
14089;BME280;7120;52.890;6.040;2023-04-07T12:49:09;101820.50;;;13.92;76.18
14089;BME280;7120;52.890;6.040;2023-04-07T12:51:34;101812.72;;;13.80;78.53
14089;BME280;7120;52.890;6.040;2023-04-07T12:54:00;101824.50;;;13.29;77.73
14089;BME280;7120;52.890;6.040;2023-04-07T12:56:26;101824.34;;;13.77;78.81
14089;BME280;7120;52.890;6.040;2023-04-07T12:58:53;101825.31;;;13.49;75.88
14089;BME280;7120;52.890;6.040;2023-04-07T13:01:19;101828.28;;;13.52;77.78
14089;BME280;7120;52.890;6.040;2023-04-07T13:03:44;101827.38;;;13.57;80.40
14089;BME280;7120;52.890;6.040;2023-04-07T13:06:09;101825.81;;;13.69;79.84
14089;BME280;7120;52.890;6.040;2023-04-07T13:08:35;101832.06;;;14.08;78.41
14089;BME280;7120;52.890;6.040;2023-04-07T13:11:01;101831.22;;;13.93;80.17
14089;BME280;7120;52.890;6.040;2023-04-07T13:13:26;101842.59;;;13.87;80.10
14089;BME280;7120;52.890;6.040;2023-04-07T13:15:52;101837.50;;;13.42;79.00
14089;BME280;7120;52.890;6.040;2023-04-07T13:18:17;101847.06;;;13.02;81.96
14089;BME280;7120;52.890;6.040;2023-04-07T13:20:43;101837.41;;;13.85;79.09
14089;BME280;7120;52.890;6.040;2023-04-07T13:23:08;101841.81;;;13.67;77.70